Time;durP1;ratioP1;P1;durP2;ratioP2;P2;SDS_P1;SDS_P2;PMS_P1;PMS_P2;Temp;Humidity;BMP_temperature;BMP_pressure;BME280_temperature;BME280_humidity;BME280_pressure;Samples;Min_cycle;Max_cycle;Signal;HPM_P1;HPM_P2
2021/01/10 00:00:38;;;;;;;9.27;5.60;;;-0.10;50.50;;;;;;6159181;23;20256;-82
2021/01/10 00:03:04;;;;;;;9.07;4.87;;;-0.10;50.60;;;;;;6185309;23;19997;-82
2021/01/10 00:05:35;;;;;;;9.20;4.90;;;-0.10;50.70;;;;;;6158693;23;20080;-82
2021/01/10 00:08:02;;;;;;;12.17;5.63;;;-0.10;50.60;;;;;;6159193;23;20232;-82
2021/01/10 00:10:29;;;;;;;10.27;5.27;;;-0.10;50.40;;;;;;6159067;23;20611;-82
2021/01/10 00:12:59;;;;;;;10.00;5.57;;;0.00;50.40;;;;;;6159257;23;20702;-82
2021/01/10 00:15:26;;;;;;;16.10;8.50;;;-0.10;50.30;;;;;;6185971;23;20252;-82
2021/01/10 00:17:53;;;;;;;18.80;10.33;;;-0.20;50.50;;;;;;6159098;23;20239;-82
2021/01/10 00:20:19;;;;;;;24.70;11.73;;;-0.20;50.80;;;;;;6157957;23;20295;-82
2021/01/10 00:22:56;;;;;;;22.17;11.57;;;-0.30;51.20;;;;;;6158378;23;20740;-82
2021/01/10 00:25:23;;;;;;;24.90;12.97;;;-0.40;51.40;;;;;;6157651;23;20236;-82
2021/01/10 00:27:49;;;;;;;18.70;11.07;;;-0.40;51.80;;;;;;6159476;23;20233;-82
2021/01/10 00:30:17;;;;;;;19.53;12.00;;;-0.60;52.10;;;;;;6184449;23;20233;-81
2021/01/10 00:32:54;;;;;;;20.10;11.67;;;-0.60;52.30;;;;;;6158142;23;20240;-81
2021/01/10 00:35:21;;;;;;;20.77;10.77;;;-0.50;52.50;;;;;;6158506;23;20659;-81
2021/01/10 00:37:52;;;;;;;18.30;10.90;;;-0.50;52.40;;;;;;6158817;23;20367;-81
2021/01/10 00:40:19;;;;;;;20.23;10.90;;;-0.40;52.40;;;;;;6158537;23;20252;-81
2021/01/10 00:42:46;;;;;;;22.40;10.67;;;-0.50;52.30;;;;;;6190608;23;20699;-81
2021/01/10 00:45:13;;;;;;;16.27;9.73;;;-0.50;52.70;;;;;;6188834;23;20251;-82
2021/01/10 00:47:39;;;;;;;15.27;7.93;;;-0.40;52.80;;;;;;6187645;23;20236;-81
2021/01/10 00:50:06;;;;;;;22.40;10.23;;;-0.40;52.70;;;;;;6188867;23;20231;-81
2021/01/10 00:52:32;;;;;;;21.17;10.20;;;-0.40;52.70;;;;;;6187531;23;20232;-81
2021/01/10 00:54:58;;;;;;;19.37;10.07;;;-0.50;52.80;;;;;;6211868;23;20239;-82
2021/01/10 00:57:24;;;;;;;23.00;11.90;;;-0.50;52.90;;;;;;6189101;23;20011;-82
2021/01/10 00:59:50;;;;;;;27.33;13.33;;;-0.50;52.80;;;;;;6217394;23;20000;-82
2021/01/10 01:02:16;;;;;;;23.40;11.10;;;-0.50;52.90;;;;;;6217465;23;20008;-82
2021/01/10 01:04:41;;;;;;;19.60;10.70;;;-0.50;52.80;;;;;;6190649;23;20103;-82
2021/01/10 01:07:07;;;;;;;23.47;11.87;;;-0.50;52.80;;;;;;6217766;23;20447;-82
2021/01/10 01:09:33;;;;;;;17.60;10.67;;;-0.60;52.90;;;;;;6190677;23;20445;-82
2021/01/10 01:11:59;;;;;;;19.77;10.07;;;-0.70;53.30;;;;;;6190089;23;20005;-82
2021/01/10 01:14:26;;;;;;;21.23;10.43;;;-0.70;53.40;;;;;;6190304;23;20087;-82
2021/01/10 01:16:52;;;;;;;17.03;9.20;;;-0.60;53.60;;;;;;6191092;23;21200;-82
2021/01/10 01:19:18;;;;;;;22.07;9.57;;;-0.60;53.50;;;;;;6190455;23;20231;-82
2021/01/10 01:21:43;;;;;;;14.67;7.80;;;-0.60;53.50;;;;;;6218175;23;20311;-82
2021/01/10 01:24:09;;;;;;;11.53;6.67;;;-0.50;53.60;;;;;;6190392;23;20013;-82
2021/01/10 01:26:35;;;;;;;13.57;6.97;;;-0.40;53.60;;;;;;6191783;23;20000;-82
2021/01/10 01:29:01;;;;;;;14.57;7.57;;;-0.40;53.40;;;;;;6191175;23;20008;-82
2021/01/10 01:31:29;;;;;;;16.20;8.23;;;-0.40;53.40;;;;;;6192102;23;20005;-82
2021/01/10 01:33:55;;;;;;;19.57;11.00;;;-0.30;53.40;;;;;;6191699;23;20004;-82
2021/01/10 01:36:24;;;;;;;21.90;9.30;;;-0.40;53.20;;;;;;6190897;23;20627;-82
2021/01/10 01:38:55;;;;;;;18.20;10.43;;;-0.50;53.60;;;;;;6190993;23;20235;-82
2021/01/10 01:41:21;;;;;;;18.03;9.60;;;-0.60;53.80;;;;;;6189956;23;20236;-82
2021/01/10 01:43:47;;;;;;;24.40;10.07;;;-0.60;53.80;;;;;;6171857;23;20271;-82
2021/01/10 01:46:25;;;;;;;18.17;9.37;;;-0.60;53.60;;;;;;6160807;23;20232;-82
2021/01/10 01:48:50;;;;;;;24.10;9.57;;;-0.70;53.70;;;;;;6160527;23;20001;-82
2021/01/10 01:51:16;;;;;;;21.37;9.90;;;-0.80;53.90;;;;;;6160980;23;20766;-82
2021/01/10 01:53:42;;;;;;;19.00;9.60;;;-0.90;54.20;;;;;;6160953;23;20005;-82
2021/01/10 01:56:07;;;;;;;20.53;10.83;;;-0.90;54.30;;;;;;6160401;23;20305;-82
2021/01/10 01:58:33;;;;;;;23.67;10.83;;;-0.80;54.30;;;;;;6160219;23;20009;-82
2021/01/10 02:00:59;;;;;;;18.20;9.97;;;-0.80;54.30;;;;;;6160335;23;20761;-82
2021/01/10 02:03:37;;;;;;;21.90;10.27;;;-0.80;54.50;;;;;;6160777;23;20008;-82
2021/01/10 02:06:21;;;;;;;19.57;10.47;;;-0.70;54.50;;;;;;6186141;23;20021;-82
2021/01/10 02:08:51;;;;;;;20.73;10.03;;;-0.70;54.60;;;;;;6159587;23;20393;-82
2021/01/10 02:11:17;;;;;;;18.83;8.93;;;-0.70;54.60;;;;;;6186670;23;20256;-82
2021/01/10 02:13:46;;;;;;;17.23;9.00;;;-0.70;54.60;;;;;;6159666;23;20275;-82
2021/01/10 02:16:12;;;;;;;21.07;9.60;;;-0.60;54.60;;;;;;6160261;23;20439;-82
2021/01/10 02:18:39;;;;;;;20.67;7.97;;;-0.70;54.40;;;;;;6160439;23;20237;-82
2021/01/10 02:21:08;;;;;;;11.77;7.00;;;-0.60;54.50;;;;;;6187445;23;20616;-82
2021/01/10 02:23:36;;;;;;;14.10;7.40;;;-0.60;54.40;;;;;;6160573;23;20723;-82
2021/01/10 02:26:03;;;;;;;14.07;7.70;;;-0.50;54.40;;;;;;6186002;23;20236;-82
2021/01/10 02:28:31;;;;;;;12.63;5.80;;;-0.50;54.40;;;;;;6159297;23;20239;-82
2021/01/10 02:31:02;;;;;;;16.50;7.03;;;-0.50;54.40;;;;;;6185816;23;20232;-82
2021/01/10 02:33:37;;;;;;;15.13;7.07;;;-0.40;54.40;;;;;;6160007;23;20710;-82
2021/01/10 02:36:11;;;;;;;11.43;6.13;;;-0.40;54.30;;;;;;6158906;23;20279;-82
2021/01/10 02:39:05;;;;;;;13.60;6.40;;;-0.40;54.40;;;;;;6158923;23;20704;-81
2021/01/10 02:41:35;;;;;;;12.97;6.00;;;-0.30;54.20;;;;;;6159079;23;20248;-82
2021/01/10 02:44:18;;;;;;;10.20;4.73;;;-0.30;54.10;;;;;;6159686;23;21118;-82
2021/01/10 02:46:47;;;;;;;;;;;-0.40;54.30;;;;;;6159263;23;20299;-82
2021/01/10 02:49:13;;;;;;;9.30;4.63;;;-0.30;54.40;;;;;;6160122;23;20300;-82
2021/01/10 02:51:39;;;;;;;11.90;5.10;;;-0.30;54.10;;;;;;6158735;23;20225;-82
2021/01/10 02:54:05;;;;;;;9.37;4.80;;;-0.40;54.10;;;;;;6157997;23;20586;-82
2021/01/10 02:56:38;;;;;;;7.97;4.73;;;-0.30;54.00;;;;;;6159900;23;20055;-82
2021/01/10 02:59:05;;;;;;;11.40;5.37;;;-0.30;53.90;;;;;;6159830;23;20432;-82
2021/01/10 03:01:32;;;;;;;9.80;4.97;;;-0.30;53.90;;;;;;6159543;23;20236;-82
2021/01/10 03:03:59;;;;;;;9.07;4.73;;;-0.30;53.70;;;;;;6159778;23;20252;-82
2021/01/10 03:06:25;;;;;;;7.33;4.40;;;-0.40;53.70;;;;;;6159896;23;20266;-82
2021/01/10 03:08:52;;;;;;;8.23;4.53;;;-0.40;53.70;;;;;;6159016;23;20237;-82
2021/01/10 03:11:18;;;;;;;9.00;5.30;;;-0.40;53.60;;;;;;6158481;23;20236;-82
2021/01/10 03:13:45;;;;;;;8.57;5.27;;;-0.50;53.60;;;;;;6158856;23;20268;-81
2021/01/10 03:16:12;;;;;;;7.53;4.30;;;-0.40;53.80;;;;;;6160499;23;20236;-82
2021/01/10 03:18:37;;;;;;;10.03;4.73;;;-0.40;53.60;;;;;;6188106;23;20233;-82
2021/01/10 03:21:03;;;;;;;9.23;4.30;;;-0.40;53.50;;;;;;6185907;23;20230;-82
2021/01/10 03:23:29;;;;;;;7.77;4.13;;;-0.40;53.80;;;;;;6159615;23;20012;-82
2021/01/10 03:25:54;;;;;;;7.90;4.50;;;-0.30;53.70;;;;;;6159838;23;20001;-82
2021/01/10 03:28:20;;;;;;;9.07;4.60;;;-0.30;53.50;;;;;;6159416;23;20001;-82
2021/01/10 03:30:46;;;;;;;6.30;4.07;;;-0.30;53.50;;;;;;6187653;23;20063;-83
2021/01/10 03:33:12;;;;;;;8.73;4.80;;;-0.30;53.30;;;;;;6162091;23;20005;-83
2021/01/10 03:35:39;;;;;;;7.93;4.37;;;-0.30;53.30;;;;;;6159820;23;20008;-83
2021/01/10 03:38:06;;;;;;;15.90;8.33;;;-0.30;53.30;;;;;;6189016;23;20020;-83
2021/01/10 03:40:32;;;;;;;17.60;9.63;;;-0.40;53.30;;;;;;6159704;23;20236;-83
2021/01/10 03:42:57;;;;;;;17.33;9.70;;;-0.40;53.50;;;;;;6157791;23;20260;-83
2021/01/10 03:45:23;;;;;;;16.83;9.17;;;-0.50;53.90;;;;;;6158826;23;20001;-82
2021/01/10 03:47:49;;;;;;;18.07;9.77;;;-0.50;54.10;;;;;;6159849;23;20009;-82
2021/01/10 03:50:16;;;;;;;16.47;9.23;;;-0.50;54.30;;;;;;6185668;23;20055;-82
2021/01/10 03:52:42;;;;;;;21.47;9.23;;;-0.60;54.50;;;;;;6184467;23;20031;-82
2021/01/10 03:55:08;;;;;;;15.57;8.37;;;-0.50;54.50;;;;;;6158137;23;20567;-82
2021/01/10 03:57:37;;;;;;;13.07;8.53;;;-0.50;54.60;;;;;;6184213;23;20012;-82
2021/01/10 04:00:09;;;;;;;13.03;7.27;;;-0.40;54.40;;;;;;6159150;23;20239;-82
2021/01/10 04:02:35;;;;;;;12.57;7.15;;;-0.40;54.20;;;;;;6134657;23;20275;-82
2021/01/10 04:05:01;;;;;;;16.40;8.40;;;-0.40;53.90;;;;;;6185776;23;20072;-82
2021/01/10 04:07:27;;;;;;;15.90;8.00;;;-0.40;54.40;;;;;;6158346;23;20609;-82
2021/01/10 04:09:54;;;;;;;14.90;7.70;;;-0.40;53.70;;;;;;6185488;23;20005;-82
2021/01/10 04:12:19;;;;;;;15.70;7.00;;;-0.50;53.60;;;;;;6159285;23;20415;-82
2021/01/10 04:14:45;;;;;;;15.13;8.10;;;-0.50;53.60;;;;;;6159744;23;20276;-82
2021/01/10 04:17:11;;;;;;;14.47;6.70;;;-0.50;53.80;;;;;;6159307;23;20009;-82
2021/01/10 04:19:36;;;;;;;18.47;8.23;;;-0.50;53.80;;;;;;6157966;23;20067;-82
2021/01/10 04:22:02;;;;;;;13.10;7.37;;;-0.50;53.90;;;;;;6158544;23;20009;-82
2021/01/10 04:24:28;;;;;;;17.00;7.03;;;-0.60;53.70;;;;;;6157307;23;19997;-82
2021/01/10 04:26:54;;;;;;;13.40;7.93;;;-0.60;53.90;;;;;;6157925;23;20040;-82
2021/01/10 04:29:19;;;;;;;15.27;7.33;;;-0.50;53.90;;;;;;6157096;23;20084;-82
2021/01/10 04:31:50;;;;;;;16.40;7.93;;;-0.50;53.70;;;;;;6157348;23;20005;-82
2021/01/10 04:34:16;;;;;;;15.87;8.30;;;-0.50;54.20;;;;;;6157157;23;20008;-82
2021/01/10 04:36:42;;;;;;;11.97;6.97;;;-0.50;53.60;;;;;;6157964;23;20252;-82
2021/01/10 04:39:08;;;;;;;14.43;6.80;;;-0.50;53.50;;;;;;6182873;23;20248;-82
2021/01/10 04:41:34;;;;;;;13.97;7.10;;;-0.60;53.30;;;;;;6157544;23;20051;-82
2021/01/10 04:44:01;;;;;;;15.30;7.27;;;-0.60;53.30;;;;;;6158053;23;20444;-81
2021/01/10 04:46:30;;;;;;;13.97;7.80;;;-0.60;53.20;;;;;;6158939;23;20568;-81
2021/01/10 04:48:57;;;;;;;14.17;7.70;;;-0.70;53.20;;;;;;6158254;23;20248;-81
2021/01/10 04:51:25;;;;;;;12.80;7.30;;;-0.70;53.30;;;;;;6159357;23;20271;-81
2021/01/10 04:53:55;;;;;;;16.20;8.43;;;-0.60;54.00;;;;;;6186465;23;20224;-81
2021/01/10 04:56:27;;;;;;;17.00;8.17;;;-0.60;53.70;;;;;;6159133;23;20232;-81
2021/01/10 04:58:54;;;;;;;19.63;8.30;;;-0.60;53.30;;;;;;6158773;23;20252;-81
2021/01/10 05:01:24;;;;;;;16.00;8.13;;;-0.60;53.40;;;;;;6158164;23;20615;-82
2021/01/10 05:03:54;;;;;;;19.57;7.77;;;-0.50;53.40;;;;;;6184814;23;20251;-82
2021/01/10 05:06:21;;;;;;;14.93;8.50;;;-0.50;53.40;;;;;;6157737;23;20233;-81
2021/01/10 05:08:48;;;;;;;22.37;9.73;;;-0.50;53.20;;;;;;6157740;23;20563;-82
2021/01/10 05:11:17;;;;;;;12.60;6.90;;;-0.60;52.90;;;;;;6157536;23;20243;-82
2021/01/10 05:13:44;;;;;;;13.93;7.77;;;-0.60;53.00;;;;;;6183969;23;20283;-82
2021/01/10 05:16:16;;;;;;;15.00;8.13;;;-0.60;52.90;;;;;;6156517;23;20240;-82
2021/01/10 05:18:50;;;;;;;14.82;7.47;;;-0.60;53.10;;;;;;6157211;23;20232;-82
2021/01/10 05:21:15;;;;;;;15.03;6.93;;;-0.50;53.10;;;;;;6157176;23;20071;-82
2021/01/10 05:23:41;;;;;;;11.63;6.40;;;-0.60;53.10;;;;;;6184003;23;20287;-82
2021/01/10 05:26:08;;;;;;;11.77;6.40;;;-0.70;53.30;;;;;;6183142;23;20021;-82
2021/01/10 05:28:37;;;;;;;14.37;6.50;;;-0.70;53.60;;;;;;6156912;23;20389;-82
2021/01/10 05:31:09;;;;;;;11.80;5.77;;;-0.80;53.80;;;;;;6156722;23;20244;-82
2021/01/10 05:33:52;;;;;;;11.50;6.43;;;-0.80;53.80;;;;;;6157358;23;20297;-82
2021/01/10 05:36:32;;;;;;;9.07;5.28;;;-0.70;54.00;;;;;;6157438;23;20236;-82
2021/01/10 05:39:20;;;;;;;10.73;5.63;;;-0.70;53.80;;;;;;6157614;23;20290;-82
2021/01/10 05:41:57;;;;;;;11.00;6.07;;;-0.70;54.00;;;;;;6157179;23;20798;-82
2021/01/10 05:44:31;;;;;;;15.30;6.27;;;-0.60;54.10;;;;;;6211060;23;20334;-83
2021/01/10 05:47:07;;;;;;;16.40;6.33;;;-0.50;54.00;;;;;;6216008;23;20228;-83
2021/01/10 05:49:33;;;;;;;13.20;6.43;;;-0.50;53.80;;;;;;6215608;23;20227;-83
2021/01/10 05:52:11;;;;;;;12.83;7.17;;;-0.60;53.80;;;;;;6189051;23;20232;-83
2021/01/10 05:54:38;;;;;;;12.20;6.53;;;-0.70;54.10;;;;;;6188260;23;20239;-83
2021/01/10 05:57:06;;;;;;;16.27;6.20;;;-0.60;54.20;;;;;;6188329;23;20278;-82
2021/01/10 05:59:46;;;;;;;13.10;7.03;;;-0.70;54.00;;;;;;6188694;23;20541;-82
2021/01/10 06:02:12;;;;;;;11.33;6.50;;;-0.70;54.20;;;;;;6188521;23;20341;-82
2021/01/10 06:04:38;;;;;;;13.87;5.67;;;-0.60;54.00;;;;;;6215658;23;20314;-82
2021/01/10 06:07:06;;;;;;;10.20;5.23;;;-0.60;53.60;;;;;;6189286;23;20614;-82
2021/01/10 06:09:47;;;;;;;11.77;5.40;;;-0.50;53.60;;;;;;6215132;23;20586;-82
2021/01/10 06:12:25;;;;;;;9.57;5.63;;;-0.50;53.40;;;;;;6188036;23;20559;-82
2021/01/10 06:15:07;;;;;;;8.57;5.00;;;-0.50;53.30;;;;;;6215627;23;20246;-82
2021/01/10 06:17:44;;;;;;;11.55;4.93;;;-0.50;53.20;;;;;;6189292;23;20267;-82
2021/01/10 06:20:31;;;;;;;7.73;4.27;;;-0.60;53.20;;;;;;6188242;23;20012;-82
2021/01/10 06:22:58;;;;;;;10.90;4.63;;;-0.60;53.40;;;;;;6216028;23;20250;-82
2021/01/10 06:25:26;;;;;;;9.60;5.17;;;-0.70;53.50;;;;;;6204157;23;20695;-82
2021/01/10 06:28:16;;;;;;;10.87;4.60;;;-0.70;53.50;;;;;;6190837;23;20676;-82
2021/01/10 06:31:03;;;;;;;9.20;4.83;;;-0.70;53.60;;;;;;6190576;23;21057;-82
2021/01/10 06:33:32;;;;;;;10.83;4.70;;;-0.70;54.30;;;;;;6191339;23;20559;-82
2021/01/10 06:36:08;;;;;;;14.20;4.60;;;-0.70;53.60;;;;;;6190694;23;20236;-82
2021/01/10 06:38:36;;;;;;;12.83;4.83;;;-0.70;53.50;;;;;;6190485;23;20236;-82
2021/01/10 06:41:28;;;;;;;10.33;4.97;;;-0.70;53.50;;;;;;6190185;23;20235;-82
2021/01/10 06:44:01;;;;;;;12.10;4.90;;;-0.80;53.40;;;;;;6170053;23;20581;-82
2021/01/10 06:46:27;;;;;;;12.43;5.47;;;-0.80;53.70;;;;;;6186504;23;20229;-82
2021/01/10 06:48:53;;;;;;;14.27;5.67;;;-0.70;53.90;;;;;;6159935;23;20624;-82
2021/01/10 06:51:25;;;;;;;9.80;5.10;;;-0.70;53.90;;;;;;6159241;23;20255;-82
2021/01/10 06:53:51;;;;;;;12.83;6.00;;;-0.60;53.80;;;;;;6158114;23;20240;-82
2021/01/10 06:56:18;;;;;;;10.93;6.43;;;-0.60;53.70;;;;;;6160082;23;20251;-82
2021/01/10 06:59:09;;;;;;;16.17;6.90;;;-0.50;53.70;;;;;;6162048;23;20009;-82
2021/01/10 07:01:52;;;;;;;13.43;5.87;;;-0.50;53.50;;;;;;6161984;23;20246;-83
2021/01/10 07:04:20;;;;;;;14.77;6.87;;;-0.50;53.40;;;;;;6162474;23;20256;-82
2021/01/10 07:06:49;;;;;;;17.13;8.07;;;-0.40;53.30;;;;;;6161027;23;20233;-82
2021/01/10 07:09:16;;;;;;;19.60;9.63;;;-0.40;53.10;;;;;;6159766;23;20561;-82
2021/01/10 07:11:43;;;;;;;18.57;9.67;;;-0.40;53.20;;;;;;6159323;23;20268;-82
2021/01/10 07:14:09;;;;;;;17.37;8.30;;;-0.40;53.20;;;;;;6157698;23;20232;-83
2021/01/10 07:16:35;;;;;;;17.67;8.90;;;-0.40;53.00;;;;;;6159993;23;20272;-83
2021/01/10 07:19:03;;;;;;;17.03;9.17;;;-0.50;52.80;;;;;;6186638;23;20433;-83
2021/01/10 07:21:46;;;;;;;21.30;11.33;;;-0.50;52.90;;;;;;6186579;23;20233;-82
2021/01/10 07:24:21;;;;;;;22.13;11.88;;;-0.50;53.00;;;;;;6159434;23;20263;-82
2021/01/10 07:26:47;;;;;;;25.67;13.43;;;-0.40;53.20;;;;;;6186806;23;20005;-82
2021/01/10 07:29:32;;;;;;;42.07;20.30;;;-0.40;53.30;;;;;;6160749;23;20243;-82
2021/01/10 07:32:14;;;;;;;21.70;11.37;;;-0.40;53.50;;;;;;6160767;23;20001;-83
2021/01/10 07:34:46;;;;;;;21.88;10.02;;;-0.30;53.30;;;;;;6185588;23;20235;-82
2021/01/10 07:37:26;;;;;;;15.67;7.60;;;-0.30;53.10;;;;;;6160435;23;20064;-82
2021/01/10 07:39:54;;;;;;;15.67;7.77;;;-0.40;52.80;;;;;;6161385;23;20306;-82
2021/01/10 07:42:24;;;;;;;19.77;8.83;;;-0.50;52.60;;;;;;6161107;23;20232;-82
2021/01/10 07:44:52;;;;;;;30.37;13.63;;;-0.60;52.60;;;;;;6216355;23;20228;-82
2021/01/10 07:47:40;;;;;;;21.77;9.80;;;-0.50;52.70;;;;;;6189871;23;20282;-81
2021/01/10 07:50:10;;;;;;;13.03;7.33;;;-0.50;52.70;;;;;;6196748;23;20231;-83
2021/01/10 07:52:45;;;;;;;31.13;14.13;;;-0.40;52.60;;;;;;6216827;23;20574;-83
2021/01/10 07:55:19;;;;;;;22.20;8.03;;;-0.40;52.70;;;;;;6188857;23;20303;-83
2021/01/10 07:57:46;;;;;;;10.27;5.60;;;-0.50;52.80;;;;;;6191190;23;20243;-82
2021/01/10 08:00:18;;;;;;;11.90;6.80;;;-0.60;52.90;;;;;;6191330;23;20243;-83
2021/01/10 08:02:56;;;;;;;15.83;7.73;;;-0.50;53.10;;;;;;6191277;23;20714;-83
2021/01/10 08:05:31;;;;;;;27.97;11.93;;;-0.60;53.20;;;;;;6216293;23;20302;-83
2021/01/10 08:08:06;;;;;;;19.37;8.50;;;-0.50;53.30;;;;;;6190223;23;20239;-83
2021/01/10 08:10:53;;;;;;;15.67;7.90;;;-0.50;53.10;;;;;;6189319;23;20683;-83
2021/01/10 08:13:46;;;;;;;14.90;7.97;;;-0.50;52.90;;;;;;6217430;23;20235;-83
2021/01/10 08:16:12;;;;;;;;;;;-0.50;52.80;;;;;;6191880;23;20239;-83
2021/01/10 08:18:40;;;;;;;17.00;8.23;;;-0.50;52.60;;;;;;6191403;23;20239;-83
2021/01/10 08:21:11;;;;;;;16.47;7.90;;;-0.50;52.70;;;;;;6190789;23;20318;-83
2021/01/10 08:23:37;;;;;;;16.73;7.23;;;-0.50;52.50;;;;;;6191885;23;20258;-83
2021/01/10 08:26:15;;;;;;;19.33;7.93;;;-0.60;52.20;;;;;;6192593;23;20331;-83
2021/01/10 08:28:42;;;;;;;18.30;6.87;;;-0.70;52.50;;;;;;6189601;23;20267;-83
2021/01/10 08:31:10;;;;;;;14.00;7.03;;;-0.60;52.70;;;;;;6216931;23;20216;-83
2021/01/10 08:33:36;;;;;;;14.13;7.50;;;-0.50;52.60;;;;;;6190828;23;20240;-83
2021/01/10 08:36:15;;;;;;;16.03;7.73;;;-0.40;52.50;;;;;;6190607;23;20228;-83
2021/01/10 08:38:51;;;;;;;14.70;7.60;;;-0.30;52.40;;;;;;6190403;23;20598;-83
2021/01/10 08:41:22;;;;;;;13.43;6.90;;;-0.30;52.20;;;;;;6191995;23;20250;-83
2021/01/10 08:44:09;;;;;;;13.20;6.97;;;-0.20;52.30;;;;;;6172316;23;20265;-83
2021/01/10 08:46:39;;;;;;;17.07;7.30;;;-0.20;52.10;;;;;;6161548;23;20235;-83
2021/01/10 08:49:05;;;;;;;13.90;6.60;;;-0.30;52.00;;;;;;6160714;23;20233;-83
2021/01/10 08:51:39;;;;;;;13.53;6.53;;;-0.40;52.00;;;;;;6160563;23;20228;-83
2021/01/10 08:54:11;;;;;;;12.03;6.30;;;-0.30;52.80;;;;;;6159376;23;20016;-83
2021/01/10 08:56:38;;;;;;;9.77;5.32;;;-0.30;52.30;;;;;;6160106;23;20234;-83
2021/01/10 08:59:08;;;;;;;14.57;6.17;;;-0.30;52.10;;;;;;6161202;23;20483;-83
2021/01/10 09:01:34;;;;;;;11.27;6.40;;;-0.40;52.00;;;;;;6186516;23;20228;-83
2021/01/10 09:04:14;;;;;;;11.23;5.77;;;-0.40;52.20;;;;;;6186785;23;20561;-83
2021/01/10 09:06:43;;;;;;;14.40;6.30;;;-0.40;52.30;;;;;;6160579;23;20224;-83
2021/01/10 09:09:47;;;;;;;13.10;6.90;;;-0.40;52.40;;;;;;6161168;23;20239;-83
2021/01/10 09:12:30;;;;;;;13.47;6.40;;;-0.40;52.50;;;;;;6128842;23;20259;-83
2021/01/10 09:15:19;;;;;;;11.43;6.10;;;-0.30;52.50;;;;;;6160372;23;20299;-83
2021/01/10 09:17:50;;;;;;;12.97;6.10;;;-0.30;52.50;;;;;;6160360;23;20060;-83
2021/01/10 09:20:20;;;;;;;10.83;5.23;;;-0.30;52.50;;;;;;6164170;23;21020;-83
2021/01/10 09:22:46;;;;;;;11.73;5.13;;;-0.30;52.40;;;;;;6163538;23;20280;-83
2021/01/10 09:25:17;;;;;;;12.87;5.20;;;-0.20;52.40;;;;;;6163268;23;20220;-83
2021/01/10 09:28:22;;;;;;;10.87;6.07;;;-0.20;52.20;;;;;;6162833;23;20232;-83
2021/01/10 09:30:52;;;;;;;10.37;5.80;;;-0.20;51.90;;;;;;6068417;23;20239;-83
2021/01/10 09:33:22;;;;;;;18.97;8.03;;;-0.20;52.00;;;;;;6043558;23;20243;-83
2021/01/10 09:35:48;;;;;;;12.53;6.67;;;-0.20;51.60;;;;;;6131002;23;20232;-83
2021/01/10 09:38:20;;;;;;;17.50;8.33;;;-0.40;51.50;;;;;;6162233;23;20244;-83
2021/01/10 09:41:01;;;;;;;12.57;6.80;;;-0.30;51.60;;;;;;6161813;23;20040;-83
2021/01/10 09:43:43;;;;;;;13.27;6.13;;;-0.40;51.20;;;;;;6163546;23;20311;-83
2021/01/10 09:46:31;;;;;;;11.02;6.68;;;-0.30;51.30;;;;;;6163105;23;20248;-83
2021/01/10 09:49:38;;;;;;;15.13;4.90;;;-0.20;51.10;;;;;;6162826;23;20016;-83
2021/01/10 09:52:45;;;;;;;11.20;5.47;;;-0.10;51.00;;;;;;6189662;23;20228;-83
2021/01/10 09:55:11;;;;;;;12.77;5.93;;;-0.10;50.80;;;;;;6126745;23;20233;-83
2021/01/10 09:57:39;;;;;;;14.77;7.43;;;0.00;50.70;;;;;;6162371;23;20687;-83
2021/01/10 10:00:16;;;;;;;13.17;7.07;;;0.00;50.50;;;;;;6159505;23;20008;-83
2021/01/10 10:02:44;;;;;;;13.63;7.17;;;0.10;50.50;;;;;;6163115;23;20256;-83
2021/01/10 10:05:25;;;;;;;14.37;6.50;;;0.20;50.50;;;;;;6163376;23;20228;-83
2021/01/10 10:08:08;;;;;;;13.30;6.57;;;0.20;50.40;;;;;;6162845;23;20241;-82
2021/01/10 10:10:34;;;;;;;9.63;6.10;;;0.40;50.50;;;;;;6190375;23;20607;-83
2021/01/10 10:13:10;;;;;;;15.13;6.40;;;0.50;50.40;;;;;;6164225;23;20267;-83
2021/01/10 10:15:42;;;;;;;12.63;7.07;;;0.50;50.20;;;;;;6162196;23;20004;-84
2021/01/10 10:18:15;;;;;;;13.25;6.97;;;0.50;50.30;;;;;;6163773;23;20291;-84
2021/01/10 10:20:41;;;;;;;14.18;7.45;;;0.50;50.10;;;;;;6165994;23;20007;-84
2021/01/10 10:23:12;;;;;;;17.87;7.93;;;0.50;50.20;;;;;;6192521;23;20033;-84
2021/01/10 10:25:39;;;;;;;14.07;7.80;;;0.60;50.30;;;;;;6165555;23;20001;-83
2021/01/10 10:28:05;;;;;;;17.63;7.83;;;0.60;50.10;;;;;;6190744;23;20268;-83
2021/01/10 10:30:32;;;;;;;14.03;7.13;;;0.60;50.10;;;;;;6163339;23;20233;-83
2021/01/10 10:32:58;;;;;;;15.67;7.57;;;0.60;50.00;;;;;;6164366;23;20243;-83
2021/01/10 10:35:24;;;;;;;18.20;7.37;;;0.60;49.70;;;;;;6166713;23;20243;-83
2021/01/10 10:37:51;;;;;;;11.43;6.67;;;0.60;49.70;;;;;;6166369;23;20243;-83
2021/01/10 10:40:18;;;;;;;12.53;7.23;;;0.60;49.50;;;;;;6191328;23;20549;-83
2021/01/10 10:42:44;;;;;;;13.07;7.50;;;0.60;49.80;;;;;;6165709;23;20267;-83
2021/01/10 10:45:10;;;;;;;21.17;8.83;;;1.00;49.80;;;;;;6167225;23;20339;-83
2021/01/10 10:47:36;;;;;;;14.67;9.17;;;1.50;49.30;;;;;;6193481;23;20224;-83
2021/01/10 10:50:04;;;;;;;17.60;9.07;;;2.00;48.90;;;;;;6165693;23;20012;-83
2021/01/10 10:52:29;;;;;;;16.20;9.37;;;2.40;48.40;;;;;;6164556;23;20005;-83
2021/01/10 10:54:55;;;;;;;15.67;9.27;;;2.70;48.00;;;;;;6166363;23;20005;-83
2021/01/10 10:57:21;;;;;;;12.33;7.60;;;2.90;47.60;;;;;;6189778;23;20689;-83
2021/01/10 10:59:46;;;;;;;16.80;8.80;;;3.00;47.20;;;;;;6163413;23;20404;-83
2021/01/10 11:02:12;;;;;;;15.23;8.70;;;3.20;47.00;;;;;;6163057;23;20013;-84
2021/01/10 11:04:42;;;;;;;16.10;8.90;;;3.40;46.80;;;;;;6163614;23;20005;-83
2021/01/10 11:07:09;;;;;;;17.87;9.03;;;3.50;46.40;;;;;;6190609;23;20017;-83
2021/01/10 11:09:35;;;;;;;14.20;9.20;;;3.70;46.30;;;;;;6189009;23;20032;-84
2021/01/10 11:12:01;;;;;;;16.80;9.90;;;3.90;45.90;;;;;;6164647;23;20017;-83
2021/01/10 11:14:27;;;;;;;14.77;9.43;;;4.00;45.70;;;;;;6164359;23;20031;-83
2021/01/10 11:16:53;;;;;;;19.93;9.10;;;4.10;45.10;;;;;;6163854;23;20013;-83
2021/01/10 11:19:20;;;;;;;14.80;8.97;;;4.00;44.90;;;;;;6162903;23;20037;-83
2021/01/10 11:21:49;;;;;;;13.80;8.70;;;4.10;44.80;;;;;;6163000;23;20013;-83
2021/01/10 11:24:16;;;;;;;17.50;9.93;;;4.10;44.80;;;;;;6161616;23;20004;-83
2021/01/10 11:26:44;;;;;;;17.27;8.80;;;4.30;44.70;;;;;;6159551;23;20012;-83
2021/01/10 11:29:10;;;;;;;16.33;10.20;;;4.50;44.60;;;;;;6159005;23;20008;-83
2021/01/10 11:31:38;;;;;;;15.93;8.93;;;4.60;44.10;;;;;;6160606;23;20007;-85
2021/01/10 11:34:05;;;;;;;18.67;8.00;;;4.60;44.10;;;;;;6160336;23;20009;-84
2021/01/10 11:36:32;;;;;;;15.70;7.90;;;4.80;44.10;;;;;;6188896;23;20001;-84
2021/01/10 11:38:58;;;;;;;12.87;7.17;;;5.10;43.90;;;;;;6163598;23;20005;-83
2021/01/10 11:41:24;;;;;;;13.27;7.10;;;5.20;43.60;;;;;;6164229;23;20028;-83
2021/01/10 11:43:51;;;;;;;10.00;6.07;;;5.20;43.40;;;;;;6165279;23;20487;-83
2021/01/10 11:46:18;;;;;;;14.07;5.70;;;5.30;43.30;;;;;;6179478;23;20001;-83
2021/01/10 11:48:45;;;;;;;9.63;5.17;;;5.50;43.20;;;;;;6186029;23;20000;-83
2021/01/10 11:51:13;;;;;;;7.50;5.37;;;5.60;43.00;;;;;;6186925;23;20016;-83
2021/01/10 11:53:39;;;;;;;7.87;5.10;;;5.60;42.80;;;;;;6167091;23;20024;-83
2021/01/10 11:56:05;;;;;;;8.37;5.27;;;5.60;42.70;;;;;;6189266;23;20016;-83
2021/01/10 11:58:32;;;;;;;8.90;5.43;;;5.60;42.50;;;;;;6186696;23;20436;-83
2021/01/10 12:00:58;;;;;;;7.27;4.77;;;5.60;42.40;;;;;;6160459;23;20009;-83
2021/01/10 12:03:25;;;;;;;6.23;4.60;;;5.30;42.20;;;;;;6160124;23;20088;-83
2021/01/10 12:05:51;;;;;;;8.23;5.23;;;5.20;42.40;;;;;;6186003;23;19997;-83
2021/01/10 12:08:18;;;;;;;7.03;4.87;;;5.10;42.50;;;;;;6159011;23;20009;-83
2021/01/10 12:10:44;;;;;;;9.07;5.33;;;5.20;42.50;;;;;;6158935;23;20480;-83
2021/01/10 12:13:10;;;;;;;7.97;5.33;;;5.20;42.40;;;;;;6156541;23;20043;-83
2021/01/10 12:15:36;;;;;;;8.63;4.97;;;5.30;42.30;;;;;;6183832;23;20005;-83
2021/01/10 12:18:03;;;;;;;10.20;5.50;;;5.40;42.40;;;;;;6158481;23;20005;-84
2021/01/10 12:20:30;;;;;;;11.53;5.47;;;5.50;42.20;;;;;;6164304;23;20504;-84
2021/01/10 12:22:55;;;;;;;8.10;5.37;;;5.40;42.00;;;;;;6158691;23;20059;-84
2021/01/10 12:25:22;;;;;;;8.37;5.23;;;5.30;42.00;;;;;;6159760;23;20005;-83
2021/01/10 12:27:48;;;;;;;10.70;6.40;;;5.20;42.10;;;;;;6159491;23;20060;-83
2021/01/10 12:30:15;;;;;;;8.37;5.77;;;5.30;42.20;;;;;;6186009;23;19997;-83
2021/01/10 12:32:41;;;;;;;8.40;5.40;;;5.30;42.00;;;;;;6158425;23;20031;-83
2021/01/10 12:35:12;;;;;;;20.43;12.33;;;5.30;42.00;;;;;;6186476;23;20013;-83
2021/01/10 12:37:38;;;;;;;18.23;10.43;;;5.30;42.10;;;;;;6159149;23;20039;-83
2021/01/10 12:40:06;;;;;;;21.63;14.80;;;5.30;41.90;;;;;;6184700;23;20417;-83
2021/01/10 12:42:31;;;;;;;11.00;8.00;;;5.20;42.00;;;;;;6162310;23;20063;-83
2021/01/10 12:44:57;;;;;;;8.03;5.53;;;5.20;41.80;;;;;;6189277;23;20009;-83
2021/01/10 12:47:23;;;;;;;8.87;6.20;;;5.20;41.70;;;;;;6189178;23;20016;-83
2021/01/10 12:49:49;;;;;;;11.07;6.63;;;5.00;41.80;;;;;;6188311;23;20078;-83
2021/01/10 12:52:14;;;;;;;8.47;5.87;;;5.00;42.00;;;;;;6188173;23;20040;-83
2021/01/10 12:54:40;;;;;;;9.17;6.27;;;5.00;42.00;;;;;;6214735;23;20000;-83